Terminal Aerodrome Forecast
Issued by NWS

Home | Current Version | Previous Version | Text Only | Print | Product List | Glossary On
Versions: 1 2 3 4 5 6 7 8 9 10 11 12 13
000
FTUS46 KSGX 252330
TAFTRM
TAF
KTRM 252330Z 2600/2624 27015G30KT P6SM SCT250
      TEMPO 2600/2604 31025G35KT 3SM BLDU
     FM260600 33015G25KT P6SM SCT250
     FM261000 31010G15KT P6SM SCT250=

USA.gov is the U.S. government's official web portal to all federal, state and local government web resources and services.